sensor_id;sensor_type;location;lat;lon;timestamp;temperature;humidity
4564;DHT22;2294;51.818;8.484;2023-04-06T00:00:24;2.40;99.90
4564;DHT22;2294;51.818;8.484;2023-04-06T00:02:51;2.50;99.90
4564;DHT22;2294;51.818;8.484;2023-04-06T00:05:19;2.40;99.90
4564;DHT22;2294;51.818;8.484;2023-04-06T00:07:46;2.30;99.90
4564;DHT22;2294;51.818;8.484;2023-04-06T00:10:13;2.30;99.90
4564;DHT22;2294;51.818;8.484;2023-04-06T00:12:40;2.30;99.90
4564;DHT22;2294;51.818;8.484;2023-04-06T00:15:08;2.30;99.90
4564;DHT22;2294;51.818;8.484;2023-04-06T00:17:36;2.20;99.90
4564;DHT22;2294;51.818;8.484;2023-04-06T00:20:04;2.30;99.90
4564;DHT22;2294;51.818;8.484;2023-04-06T00:22:32;2.20;99.90
4564;DHT22;2294;51.818;8.484;2023-04-06T00:24:59;2.30;99.90
4564;DHT22;2294;51.818;8.484;2023-04-06T00:27:26;2.10;99.90
4564;DHT22;2294;51.818;8.484;2023-04-06T00:29:53;2.00;99.90
4564;DHT22;2294;51.818;8.484;2023-04-06T00:32:20;2.10;99.90
4564;DHT22;2294;51.818;8.484;2023-04-06T00:34:48;2.30;99.90
4564;DHT22;2294;51.818;8.484;2023-04-06T00:37:15;2.20;99.90
4564;DHT22;2294;51.818;8.484;2023-04-06T00:39:42;1.90;99.90
4564;DHT22;2294;51.818;8.484;2023-04-06T00:42:11;1.90;99.90
4564;DHT22;2294;51.818;8.484;2023-04-06T00:44:40;1.90;99.90
4564;DHT22;2294;51.818;8.484;2023-04-06T00:47:07;1.90;99.90
4564;DHT22;2294;51.818;8.484;2023-04-06T00:49:34;1.80;99.90
4564;DHT22;2294;51.818;8.484;2023-04-06T00:52:02;1.80;99.90
4564;DHT22;2294;51.818;8.484;2023-04-06T00:54:30;1.70;99.90
4564;DHT22;2294;51.818;8.484;2023-04-06T00:56:57;1.70;99.90
4564;DHT22;2294;51.818;8.484;2023-04-06T00:59:24;1.70;99.90
4564;DHT22;2294;51.818;8.484;2023-04-06T01:01:51;1.60;99.90
4564;DHT22;2294;51.818;8.484;2023-04-06T01:04:18;1.50;99.90
4564;DHT22;2294;51.818;8.484;2023-04-06T01:06:47;1.50;99.90
4564;DHT22;2294;51.818;8.484;2023-04-06T01:09:16;1.50;99.90
4564;DHT22;2294;51.818;8.484;2023-04-06T01:11:43;1.40;99.90
4564;DHT22;2294;51.818;8.484;2023-04-06T01:14:10;1.40;99.90
4564;DHT22;2294;51.818;8.484;2023-04-06T01:16:38;1.40;99.90
4564;DHT22;2294;51.818;8.484;2023-04-06T01:19:08;1.30;99.90
4564;DHT22;2294;51.818;8.484;2023-04-06T01:21:35;1.30;99.90
4564;DHT22;2294;51.818;8.484;2023-04-06T01:24:04;1.20;99.90
4564;DHT22;2294;51.818;8.484;2023-04-06T01:26:32;1.10;99.90
4564;DHT22;2294;51.818;8.484;2023-04-06T01:28:59;1.20;99.90
4564;DHT22;2294;51.818;8.484;2023-04-06T01:31:26;1.10;99.90
4564;DHT22;2294;51.818;8.484;2023-04-06T01:33:53;1.10;99.90
4564;DHT22;2294;51.818;8.484;2023-04-06T01:36:20;1.10;99.90
4564;DHT22;2294;51.818;8.484;2023-04-06T01:38:48;1.10;99.90
4564;DHT22;2294;51.818;8.484;2023-04-06T01:41:16;1.20;99.90
4564;DHT22;2294;51.818;8.484;2023-04-06T01:43:44;1.20;99.90
4564;DHT22;2294;51.818;8.484;2023-04-06T01:46:11;1.20;99.90
4564;DHT22;2294;51.818;8.484;2023-04-06T01:48:38;1.10;99.90
4564;DHT22;2294;51.818;8.484;2023-04-06T01:51:05;1.00;99.90
4564;DHT22;2294;51.818;8.484;2023-04-06T01:53:32;1.00;99.90
4564;DHT22;2294;51.818;8.484;2023-04-06T01:55:59;1.00;99.90
4564;DHT22;2294;51.818;8.484;2023-04-06T01:58:27;1.00;99.90
4564;DHT22;2294;51.818;8.484;2023-04-06T02:00:55;1.10;99.90
4564;DHT22;2294;51.818;8.484;2023-04-06T02:03:22;1.00;99.90
4564;DHT22;2294;51.818;8.484;2023-04-06T02:05:49;1.00;99.90
4564;DHT22;2294;51.818;8.484;2023-04-06T02:08:16;0.90;99.90
4564;DHT22;2294;51.818;8.484;2023-04-06T02:10:43;0.90;99.90
4564;DHT22;2294;51.818;8.484;2023-04-06T02:13:10;0.80;99.90
4564;DHT22;2294;51.818;8.484;2023-04-06T02:15:38;0.80;99.90
4564;DHT22;2294;51.818;8.484;2023-04-06T02:18:05;0.80;99.90
4564;DHT22;2294;51.818;8.484;2023-04-06T02:20:32;0.80;99.90
4564;DHT22;2294;51.818;8.484;2023-04-06T02:22:59;0.80;99.90
4564;DHT22;2294;51.818;8.484;2023-04-06T02:25:27;0.70;99.90
4564;DHT22;2294;51.818;8.484;2023-04-06T02:27:54;0.70;99.90
4564;DHT22;2294;51.818;8.484;2023-04-06T02:30:21;0.70;99.90
4564;DHT22;2294;51.818;8.484;2023-04-06T02:32:49;0.70;99.90
4564;DHT22;2294;51.818;8.484;2023-04-06T02:35:16;0.60;99.90
4564;DHT22;2294;51.818;8.484;2023-04-06T02:37:43;0.50;99.90
4564;DHT22;2294;51.818;8.484;2023-04-06T02:40:10;0.50;99.90
4564;DHT22;2294;51.818;8.484;2023-04-06T02:42:37;0.40;99.90
4564;DHT22;2294;51.818;8.484;2023-04-06T02:45:05;0.40;99.90
4564;DHT22;2294;51.818;8.484;2023-04-06T02:47:33;0.40;99.90
4564;DHT22;2294;51.818;8.484;2023-04-06T02:50:01;0.50;99.90
4564;DHT22;2294;51.818;8.484;2023-04-06T02:52:28;0.50;99.90
4564;DHT22;2294;51.818;8.484;2023-04-06T02:54:55;0.50;99.90
4564;DHT22;2294;51.818;8.484;2023-04-06T02:57:22;0.70;99.90
4564;DHT22;2294;51.818;8.484;2023-04-06T02:59:49;0.50;99.90
4564;DHT22;2294;51.818;8.484;2023-04-06T03:02:16;0.40;99.90
4564;DHT22;2294;51.818;8.484;2023-04-06T03:04:44;0.40;99.90
4564;DHT22;2294;51.818;8.484;2023-04-06T03:07:12;0.40;99.90
4564;DHT22;2294;51.818;8.484;2023-04-06T03:09:39;0.40;99.90
4564;DHT22;2294;51.818;8.484;2023-04-06T03:12:06;0.40;99.90
4564;DHT22;2294;51.818;8.484;2023-04-06T03:14:33;0.50;99.90
4564;DHT22;2294;51.818;8.484;2023-04-06T03:17:00;0.40;99.90
4564;DHT22;2294;51.818;8.484;2023-04-06T03:19:27;0.40;99.90
4564;DHT22;2294;51.818;8.484;2023-04-06T03:21:54;0.40;99.90
4564;DHT22;2294;51.818;8.484;2023-04-06T03:24:23;0.30;99.90
4564;DHT22;2294;51.818;8.484;2023-04-06T03:26:50;0.30;99.90
4564;DHT22;2294;51.818;8.484;2023-04-06T03:29:17;0.30;99.90
4564;DHT22;2294;51.818;8.484;2023-04-06T03:31:44;0.30;99.90
4564;DHT22;2294;51.818;8.484;2023-04-06T03:34:11;0.40;99.90
4564;DHT22;2294;51.818;8.484;2023-04-06T03:36:38;0.40;99.90
4564;DHT22;2294;51.818;8.484;2023-04-06T03:39:05;0.30;99.90
4564;DHT22;2294;51.818;8.484;2023-04-06T03:41:33;0.20;99.90
4564;DHT22;2294;51.818;8.484;2023-04-06T03:44:00;0.20;99.90
4564;DHT22;2294;51.818;8.484;2023-04-06T03:46:27;0.30;99.90
4564;DHT22;2294;51.818;8.484;2023-04-06T03:48:54;0.20;99.90
4564;DHT22;2294;51.818;8.484;2023-04-06T03:51:21;0.00;99.90
4564;DHT22;2294;51.818;8.484;2023-04-06T03:53:48;0.10;99.90
4564;DHT22;2294;51.818;8.484;2023-04-06T03:56:15;0.00;99.90
4564;DHT22;2294;51.818;8.484;2023-04-06T03:58:44;-0.10;99.90
4564;DHT22;2294;51.818;8.484;2023-04-06T04:01:14;0.00;99.90
4564;DHT22;2294;51.818;8.484;2023-04-06T04:03:41;0.10;99.90
4564;DHT22;2294;51.818;8.484;2023-04-06T04:06:08;0.00;99.90
4564;DHT22;2294;51.818;8.484;2023-04-06T04:08:35;0.10;99.90
4564;DHT22;2294;51.818;8.484;2023-04-06T04:11:02;0.10;99.90
4564;DHT22;2294;51.818;8.484;2023-04-06T04:13:29;0.20;99.90
4564;DHT22;2294;51.818;8.484;2023-04-06T04:15:58;0.00;99.90
4564;DHT22;2294;51.818;8.484;2023-04-06T04:18:25;0.00;99.90
4564;DHT22;2294;51.818;8.484;2023-04-06T04:20:52;0.10;99.90
4564;DHT22;2294;51.818;8.484;2023-04-06T04:23:19;0.10;99.90
4564;DHT22;2294;51.818;8.484;2023-04-06T04:25:46;0.10;99.90
4564;DHT22;2294;51.818;8.484;2023-04-06T04:28:13;0.20;99.90
4564;DHT22;2294;51.818;8.484;2023-04-06T04:30:40;0.20;99.90
4564;DHT22;2294;51.818;8.484;2023-04-06T04:33:08;0.20;99.90
4564;DHT22;2294;51.818;8.484;2023-04-06T04:35:35;0.20;99.90
4564;DHT22;2294;51.818;8.484;2023-04-06T04:38:02;0.20;99.90
4564;DHT22;2294;51.818;8.484;2023-04-06T04:40:29;0.10;99.90
4564;DHT22;2294;51.818;8.484;2023-04-06T04:42:56;0.20;99.90
4564;DHT22;2294;51.818;8.484;2023-04-06T04:45:23;0.10;99.90
4564;DHT22;2294;51.818;8.484;2023-04-06T04:47:50;0.10;99.90
4564;DHT22;2294;51.818;8.484;2023-04-06T04:50:19;0.00;99.90
4564;DHT22;2294;51.818;8.484;2023-04-06T04:52:46;-0.10;99.90
4564;DHT22;2294;51.818;8.484;2023-04-06T04:55:13;0.10;99.90
4564;DHT22;2294;51.818;8.484;2023-04-06T04:57:40;0.00;99.90
4564;DHT22;2294;51.818;8.484;2023-04-06T05:00:08;0.00;99.90
4564;DHT22;2294;51.818;8.484;2023-04-06T05:02:35;-0.10;99.90
4564;DHT22;2294;51.818;8.484;2023-04-06T05:05:02;-0.10;99.90
4564;DHT22;2294;51.818;8.484;2023-04-06T05:07:30;-0.10;99.90
4564;DHT22;2294;51.818;8.484;2023-04-06T05:09:57;0.00;99.90
4564;DHT22;2294;51.818;8.484;2023-04-06T05:12:24;-0.10;99.90
4564;DHT22;2294;51.818;8.484;2023-04-06T05:14:53;0.00;99.90
4564;DHT22;2294;51.818;8.484;2023-04-06T05:17:20;0.10;99.90
4564;DHT22;2294;51.818;8.484;2023-04-06T05:19:47;0.20;99.90
4564;DHT22;2294;51.818;8.484;2023-04-06T05:22:14;0.30;99.90
4564;DHT22;2294;51.818;8.484;2023-04-06T05:24:44;0.20;99.90
4564;DHT22;2294;51.818;8.484;2023-04-06T05:27:11;0.30;99.90
4564;DHT22;2294;51.818;8.484;2023-04-06T05:29:38;0.30;99.90
4564;DHT22;2294;51.818;8.484;2023-04-06T05:32:05;0.50;99.90
4564;DHT22;2294;51.818;8.484;2023-04-06T05:34:33;0.40;99.90
4564;DHT22;2294;51.818;8.484;2023-04-06T05:37:00;0.50;99.90
4564;DHT22;2294;51.818;8.484;2023-04-06T05:39:27;0.60;99.90
4564;DHT22;2294;51.818;8.484;2023-04-06T05:41:55;0.60;99.90
4564;DHT22;2294;51.818;8.484;2023-04-06T05:44:22;0.70;99.90
4564;DHT22;2294;51.818;8.484;2023-04-06T05:46:49;0.70;99.90
4564;DHT22;2294;51.818;8.484;2023-04-06T05:49:16;0.90;99.90
4564;DHT22;2294;51.818;8.484;2023-04-06T05:51:43;1.00;99.90
4564;DHT22;2294;51.818;8.484;2023-04-06T05:54:10;1.10;99.90
4564;DHT22;2294;51.818;8.484;2023-04-06T05:56:37;1.20;99.90
4564;DHT22;2294;51.818;8.484;2023-04-06T05:59:05;1.30;99.90
4564;DHT22;2294;51.818;8.484;2023-04-06T06:01:33;1.30;99.90
4564;DHT22;2294;51.818;8.484;2023-04-06T06:04:00;1.40;99.90
4564;DHT22;2294;51.818;8.484;2023-04-06T06:06:28;1.50;99.90
4564;DHT22;2294;51.818;8.484;2023-04-06T06:08:55;1.60;99.90
4564;DHT22;2294;51.818;8.484;2023-04-06T06:11:24;1.70;99.90
4564;DHT22;2294;51.818;8.484;2023-04-06T06:13:51;1.80;99.90
4564;DHT22;2294;51.818;8.484;2023-04-06T06:16:20;1.90;99.90
4564;DHT22;2294;51.818;8.484;2023-04-06T06:18:47;1.90;99.90
4564;DHT22;2294;51.818;8.484;2023-04-06T06:21:14;2.10;99.90
4564;DHT22;2294;51.818;8.484;2023-04-06T06:23:42;2.10;99.90
4564;DHT22;2294;51.818;8.484;2023-04-06T06:26:09;2.30;99.90
4564;DHT22;2294;51.818;8.484;2023-04-06T06:28:36;2.30;99.90
4564;DHT22;2294;51.818;8.484;2023-04-06T06:31:03;2.50;99.90
4564;DHT22;2294;51.818;8.484;2023-04-06T06:33:32;2.60;99.90
4564;DHT22;2294;51.818;8.484;2023-04-06T06:35:59;2.60;99.90
4564;DHT22;2294;51.818;8.484;2023-04-06T06:38:26;2.70;99.90
4564;DHT22;2294;51.818;8.484;2023-04-06T06:40:53;2.80;99.90
4564;DHT22;2294;51.818;8.484;2023-04-06T06:43:20;2.90;99.90
4564;DHT22;2294;51.818;8.484;2023-04-06T06:45:47;3.00;99.90
4564;DHT22;2294;51.818;8.484;2023-04-06T06:48:14;3.00;99.90
4564;DHT22;2294;51.818;8.484;2023-04-06T06:50:42;3.20;99.90
4564;DHT22;2294;51.818;8.484;2023-04-06T06:53:09;3.20;99.90
4564;DHT22;2294;51.818;8.484;2023-04-06T06:55:37;3.30;99.90
4564;DHT22;2294;51.818;8.484;2023-04-06T06:58:04;3.40;99.90
4564;DHT22;2294;51.818;8.484;2023-04-06T07:00:31;3.50;99.90
4564;DHT22;2294;51.818;8.484;2023-04-06T07:02:58;3.50;99.90
4564;DHT22;2294;51.818;8.484;2023-04-06T07:05:25;3.60;99.90
4564;DHT22;2294;51.818;8.484;2023-04-06T07:07:53;3.70;99.90
4564;DHT22;2294;51.818;8.484;2023-04-06T07:10:21;3.80;99.90
4564;DHT22;2294;51.818;8.484;2023-04-06T07:12:48;3.90;99.90
4564;DHT22;2294;51.818;8.484;2023-04-06T07:15:16;3.90;99.90
4564;DHT22;2294;51.818;8.484;2023-04-06T07:17:43;4.00;99.90
4564;DHT22;2294;51.818;8.484;2023-04-06T07:20:11;4.10;99.90
4564;DHT22;2294;51.818;8.484;2023-04-06T07:22:38;4.30;99.90
4564;DHT22;2294;51.818;8.484;2023-04-06T07:25:08;4.40;99.90
4564;DHT22;2294;51.818;8.484;2023-04-06T07:27:35;4.40;99.90
4564;DHT22;2294;51.818;8.484;2023-04-06T07:30:02;4.50;99.90
4564;DHT22;2294;51.818;8.484;2023-04-06T07:32:29;4.60;99.90
4564;DHT22;2294;51.818;8.484;2023-04-06T07:34:56;4.60;99.90
4564;DHT22;2294;51.818;8.484;2023-04-06T07:37:23;4.80;99.90
4564;DHT22;2294;51.818;8.484;2023-04-06T07:39:50;5.00;99.90
4564;DHT22;2294;51.818;8.484;2023-04-06T07:42:19;5.10;99.90
4564;DHT22;2294;51.818;8.484;2023-04-06T07:44:46;5.40;99.90
4564;DHT22;2294;51.818;8.484;2023-04-06T07:47:13;5.40;99.90
4564;DHT22;2294;51.818;8.484;2023-04-06T07:49:40;5.40;99.90
4564;DHT22;2294;51.818;8.484;2023-04-06T07:52:07;5.70;99.90
4564;DHT22;2294;51.818;8.484;2023-04-06T07:54:34;5.90;99.90
4564;DHT22;2294;51.818;8.484;2023-04-06T07:57:01;5.90;99.90
4564;DHT22;2294;51.818;8.484;2023-04-06T07:59:29;6.10;99.90
4564;DHT22;2294;51.818;8.484;2023-04-06T08:01:56;6.10;99.90
4564;DHT22;2294;51.818;8.484;2023-04-06T08:04:23;6.20;99.90
4564;DHT22;2294;51.818;8.484;2023-04-06T08:06:50;6.40;99.90
4564;DHT22;2294;51.818;8.484;2023-04-06T08:09:17;6.50;99.90
4564;DHT22;2294;51.818;8.484;2023-04-06T08:11:44;6.60;99.90
4564;DHT22;2294;51.818;8.484;2023-04-06T08:14:11;6.60;99.90
4564;DHT22;2294;51.818;8.484;2023-04-06T08:16:40;6.70;99.90
4564;DHT22;2294;51.818;8.484;2023-04-06T08:19:07;6.90;99.90
4564;DHT22;2294;51.818;8.484;2023-04-06T08:21:35;7.00;99.90
4564;DHT22;2294;51.818;8.484;2023-04-06T08:24:02;7.20;99.90
4564;DHT22;2294;51.818;8.484;2023-04-06T08:26:29;7.20;99.90
4564;DHT22;2294;51.818;8.484;2023-04-06T08:28:56;7.30;99.90
4564;DHT22;2294;51.818;8.484;2023-04-06T08:31:23;7.10;99.90
4564;DHT22;2294;51.818;8.484;2023-04-06T08:33:51;7.30;99.90
4564;DHT22;2294;51.818;8.484;2023-04-06T08:36:18;7.70;99.90
4564;DHT22;2294;51.818;8.484;2023-04-06T08:38:48;7.80;99.90
4564;DHT22;2294;51.818;8.484;2023-04-06T08:41:16;7.70;99.90
4564;DHT22;2294;51.818;8.484;2023-04-06T08:43:46;7.80;99.90
4564;DHT22;2294;51.818;8.484;2023-04-06T08:46:13;8.00;99.90
4564;DHT22;2294;51.818;8.484;2023-04-06T08:48:41;8.20;99.90
4564;DHT22;2294;51.818;8.484;2023-04-06T08:51:11;8.40;99.90
4564;DHT22;2294;51.818;8.484;2023-04-06T08:53:38;8.40;99.90
4564;DHT22;2294;51.818;8.484;2023-04-06T08:56:06;8.80;99.90
4564;DHT22;2294;51.818;8.484;2023-04-06T08:58:35;8.70;99.90
4564;DHT22;2294;51.818;8.484;2023-04-06T09:01:05;8.70;99.90
4564;DHT22;2294;51.818;8.484;2023-04-06T09:03:36;8.80;99.90
4564;DHT22;2294;51.818;8.484;2023-04-06T09:06:04;8.90;99.90
4564;DHT22;2294;51.818;8.484;2023-04-06T09:08:33;8.90;99.90
4564;DHT22;2294;51.818;8.484;2023-04-06T09:11:01;9.10;99.90
4564;DHT22;2294;51.818;8.484;2023-04-06T09:13:28;9.10;99.90
4564;DHT22;2294;51.818;8.484;2023-04-06T09:15:59;9.00;99.90
4564;DHT22;2294;51.818;8.484;2023-04-06T09:18:29;9.60;99.90
4564;DHT22;2294;51.818;8.484;2023-04-06T09:20:58;9.70;99.90
4564;DHT22;2294;51.818;8.484;2023-04-06T09:23:25;9.70;99.90
4564;DHT22;2294;51.818;8.484;2023-04-06T09:26:06;9.70;99.90
4564;DHT22;2294;51.818;8.484;2023-04-06T09:28:44;9.50;99.90
4564;DHT22;2294;51.818;8.484;2023-04-06T09:31:12;9.80;99.90
4564;DHT22;2294;51.818;8.484;2023-04-06T09:33:40;10.20;99.90
4564;DHT22;2294;51.818;8.484;2023-04-06T09:36:07;10.30;99.90
4564;DHT22;2294;51.818;8.484;2023-04-06T09:38:37;10.20;99.90
4564;DHT22;2294;51.818;8.484;2023-04-06T09:41:06;10.30;99.90
4564;DHT22;2294;51.818;8.484;2023-04-06T09:43:33;10.40;99.90
4564;DHT22;2294;51.818;8.484;2023-04-06T09:46:00;10.50;99.90
4564;DHT22;2294;51.818;8.484;2023-04-06T09:48:31;10.30;99.90
4564;DHT22;2294;51.818;8.484;2023-04-06T09:51:03;10.40;99.90
4564;DHT22;2294;51.818;8.484;2023-04-06T09:53:31;10.60;99.90
4564;DHT22;2294;51.818;8.484;2023-04-06T09:56:03;10.60;99.90
4564;DHT22;2294;51.818;8.484;2023-04-06T09:58:34;10.70;99.90
4564;DHT22;2294;51.818;8.484;2023-04-06T10:01:08;10.90;99.90
4564;DHT22;2294;51.818;8.484;2023-04-06T10:03:44;11.20;99.90
4564;DHT22;2294;51.818;8.484;2023-04-06T10:06:13;10.90;99.90
4564;DHT22;2294;51.818;8.484;2023-04-06T10:08:43;11.30;99.90
4564;DHT22;2294;51.818;8.484;2023-04-06T10:11:12;11.30;99.90
4564;DHT22;2294;51.818;8.484;2023-04-06T10:13:41;11.40;99.90
4564;DHT22;2294;51.818;8.484;2023-04-06T10:16:10;11.30;99.90
4564;DHT22;2294;51.818;8.484;2023-04-06T10:18:41;11.40;99.90
4564;DHT22;2294;51.818;8.484;2023-04-06T10:21:12;11.50;99.90
4564;DHT22;2294;51.818;8.484;2023-04-06T10:23:45;11.80;99.90
4564;DHT22;2294;51.818;8.484;2023-04-06T10:26:14;11.50;99.90
4564;DHT22;2294;51.818;8.484;2023-04-06T10:28:45;11.40;99.90
4564;DHT22;2294;51.818;8.484;2023-04-06T10:31:13;11.60;99.90
4564;DHT22;2294;51.818;8.484;2023-04-06T10:33:40;11.60;99.90
4564;DHT22;2294;51.818;8.484;2023-04-06T10:36:11;11.90;99.90
4564;DHT22;2294;51.818;8.484;2023-04-06T10:38:39;11.80;99.90
4564;DHT22;2294;51.818;8.484;2023-04-06T10:41:06;12.20;99.90
4564;DHT22;2294;51.818;8.484;2023-04-06T10:43:35;12.50;99.90
4564;DHT22;2294;51.818;8.484;2023-04-06T10:46:05;12.60;99.90
4564;DHT22;2294;51.818;8.484;2023-04-06T10:48:39;12.10;99.90
4564;DHT22;2294;51.818;8.484;2023-04-06T10:51:11;12.00;92.60
4564;DHT22;2294;51.818;8.484;2023-04-06T10:53:38;12.20;51.30
4564;DHT22;2294;51.818;8.484;2023-04-06T10:56:10;12.00;1.00
4564;DHT22;2294;51.818;8.484;2023-04-06T10:58:37;12.20;1.00
4564;DHT22;2294;51.818;8.484;2023-04-06T11:01:06;12.10;1.00
4564;DHT22;2294;51.818;8.484;2023-04-06T11:03:42;12.20;1.00
4564;DHT22;2294;51.818;8.484;2023-04-06T11:06:10;12.40;1.00
4564;DHT22;2294;51.818;8.484;2023-04-06T11:08:38;12.40;1.00
4564;DHT22;2294;51.818;8.484;2023-04-06T11:11:06;12.50;1.00
4564;DHT22;2294;51.818;8.484;2023-04-06T11:13:38;12.60;1.00
4564;DHT22;2294;51.818;8.484;2023-04-06T11:16:11;12.20;1.00
4564;DHT22;2294;51.818;8.484;2023-04-06T11:18:46;12.00;1.00
4564;DHT22;2294;51.818;8.484;2023-04-06T11:21:13;12.70;1.00
4564;DHT22;2294;51.818;8.484;2023-04-06T11:23:40;12.20;1.00
4564;DHT22;2294;51.818;8.484;2023-04-06T11:26:10;13.00;1.00
4564;DHT22;2294;51.818;8.484;2023-04-06T11:28:38;13.20;1.00
4564;DHT22;2294;51.818;8.484;2023-04-06T11:31:07;13.10;1.00
4564;DHT22;2294;51.818;8.484;2023-04-06T11:33:35;13.30;1.00
4564;DHT22;2294;51.818;8.484;2023-04-06T11:36:03;13.60;1.00
4564;DHT22;2294;51.818;8.484;2023-04-06T11:38:31;13.50;1.00
4564;DHT22;2294;51.818;8.484;2023-04-06T11:40:58;13.70;1.00
4564;DHT22;2294;51.818;8.484;2023-04-06T11:43:29;13.90;1.00
4564;DHT22;2294;51.818;8.484;2023-04-06T11:46:00;13.60;1.00
4564;DHT22;2294;51.818;8.484;2023-04-06T11:48:30;13.70;1.00
4564;DHT22;2294;51.818;8.484;2023-04-06T11:50:57;13.70;1.00
4564;DHT22;2294;51.818;8.484;2023-04-06T11:53:26;13.80;1.00
4564;DHT22;2294;51.818;8.484;2023-04-06T11:55:53;14.20;1.00
4564;DHT22;2294;51.818;8.484;2023-04-06T11:58:20;14.10;1.00
4564;DHT22;2294;51.818;8.484;2023-04-06T12:00:47;13.70;99.90
4564;DHT22;2294;51.818;8.484;2023-04-06T12:03:14;13.80;99.90
4564;DHT22;2294;51.818;8.484;2023-04-06T12:05:43;13.80;99.90
4564;DHT22;2294;51.818;8.484;2023-04-06T12:08:10;13.80;99.90
4564;DHT22;2294;51.818;8.484;2023-04-06T12:10:37;14.10;99.90
4564;DHT22;2294;51.818;8.484;2023-04-06T12:13:04;14.40;99.90
4564;DHT22;2294;51.818;8.484;2023-04-06T12:15:32;14.40;99.90
4564;DHT22;2294;51.818;8.484;2023-04-06T12:17:59;14.00;99.90
4564;DHT22;2294;51.818;8.484;2023-04-06T12:20:26;14.00;99.90
4564;DHT22;2294;51.818;8.484;2023-04-06T12:22:54;13.80;99.90
4564;DHT22;2294;51.818;8.484;2023-04-06T12:25:21;15.30;99.90
4564;DHT22;2294;51.818;8.484;2023-04-06T12:27:48;14.50;99.90
4564;DHT22;2294;51.818;8.484;2023-04-06T12:30:15;15.00;99.90
4564;DHT22;2294;51.818;8.484;2023-04-06T12:32:42;14.60;99.90
4564;DHT22;2294;51.818;8.484;2023-04-06T12:35:09;14.60;74.60
4564;DHT22;2294;51.818;8.484;2023-04-06T12:37:37;14.60;53.90
4564;DHT22;2294;51.818;8.484;2023-04-06T12:40:07;15.00;42.00
4564;DHT22;2294;51.818;8.484;2023-04-06T12:42:36;15.00;8.90
4564;DHT22;2294;51.818;8.484;2023-04-06T12:45:03;15.50;23.50
4564;DHT22;2294;51.818;8.484;2023-04-06T12:47:30;15.80;1.00
4564;DHT22;2294;51.818;8.484;2023-04-06T12:49:57;16.00;1.00
4564;DHT22;2294;51.818;8.484;2023-04-06T12:52:25;15.70;1.00
4564;DHT22;2294;51.818;8.484;2023-04-06T12:54:52;15.60;1.00
4564;DHT22;2294;51.818;8.484;2023-04-06T12:57:21;14.70;1.00
4564;DHT22;2294;51.818;8.484;2023-04-06T12:59:48;15.20;1.00
4564;DHT22;2294;51.818;8.484;2023-04-06T13:02:15;15.30;1.00
4564;DHT22;2294;51.818;8.484;2023-04-06T13:04:42;15.70;1.00
4564;DHT22;2294;51.818;8.484;2023-04-06T13:07:09;15.70;1.00
4564;DHT22;2294;51.818;8.484;2023-04-06T13:09:36;15.00;1.00
4564;DHT22;2294;51.818;8.484;2023-04-06T13:12:03;15.40;1.00
4564;DHT22;2294;51.818;8.484;2023-04-06T13:14:32;15.30;1.00
4564;DHT22;2294;51.818;8.484;2023-04-06T13:16:59;16.40;1.00
4564;DHT22;2294;51.818;8.484;2023-04-06T13:19:26;16.70;1.00
4564;DHT22;2294;51.818;8.484;2023-04-06T13:21:53;16.50;1.00
4564;DHT22;2294;51.818;8.484;2023-04-06T13:24:20;16.60;1.00
4564;DHT22;2294;51.818;8.484;2023-04-06T13:26:47;16.20;1.00
4564;DHT22;2294;51.818;8.484;2023-04-06T13:29:14;16.10;1.00
4564;DHT22;2294;51.818;8.484;2023-04-06T13:31:42;16.30;1.00
4564;DHT22;2294;51.818;8.484;2023-04-06T13:34:09;15.70;1.00
4564;DHT22;2294;51.818;8.484;2023-04-06T13:36:36;16.10;1.00
4564;DHT22;2294;51.818;8.484;2023-04-06T13:39:06;15.90;1.00
4564;DHT22;2294;51.818;8.484;2023-04-06T13:41:33;15.80;1.00
4564;DHT22;2294;51.818;8.484;2023-04-06T13:44:00;15.50;1.00
4564;DHT22;2294;51.818;8.484;2023-04-06T13:46:27;15.00;1.00
4564;DHT22;2294;51.818;8.484;2023-04-06T13:48:56;15.90;1.00
4564;DHT22;2294;51.818;8.484;2023-04-06T13:51:23;17.10;1.00
4564;DHT22;2294;51.818;8.484;2023-04-06T13:53:50;17.50;1.00
4564;DHT22;2294;51.818;8.484;2023-04-06T13:56:18;16.70;1.00
4564;DHT22;2294;51.818;8.484;2023-04-06T13:58:45;16.60;1.00
4564;DHT22;2294;51.818;8.484;2023-04-06T14:01:12;16.90;1.00
4564;DHT22;2294;51.818;8.484;2023-04-06T14:03:39;16.50;1.00
4564;DHT22;2294;51.818;8.484;2023-04-06T14:06:12;17.20;1.00
4564;DHT22;2294;51.818;8.484;2023-04-06T14:08:39;17.40;1.00
4564;DHT22;2294;51.818;8.484;2023-04-06T14:11:07;17.50;1.00
4564;DHT22;2294;51.818;8.484;2023-04-06T14:13:37;17.40;1.00
4564;DHT22;2294;51.818;8.484;2023-04-06T14:16:05;18.20;1.00
4564;DHT22;2294;51.818;8.484;2023-04-06T14:18:32;18.80;1.00
4564;DHT22;2294;51.818;8.484;2023-04-06T14:21:00;19.00;1.00
4564;DHT22;2294;51.818;8.484;2023-04-06T14:23:28;18.30;1.00
4564;DHT22;2294;51.818;8.484;2023-04-06T14:26:03;18.00;1.00
4564;DHT22;2294;51.818;8.484;2023-04-06T14:28:31;18.90;1.00
4564;DHT22;2294;51.818;8.484;2023-04-06T14:30:58;17.20;1.00
4564;DHT22;2294;51.818;8.484;2023-04-06T14:33:26;17.90;1.00
4564;DHT22;2294;51.818;8.484;2023-04-06T14:35:53;18.50;1.00
4564;DHT22;2294;51.818;8.484;2023-04-06T14:38:19;18.50;1.00
4564;DHT22;2294;51.818;8.484;2023-04-06T14:40:48;18.90;1.00
4564;DHT22;2294;51.818;8.484;2023-04-06T14:43:15;17.80;1.00
4564;DHT22;2294;51.818;8.484;2023-04-06T14:45:42;18.10;1.00
4564;DHT22;2294;51.818;8.484;2023-04-06T14:48:09;17.80;1.00
4564;DHT22;2294;51.818;8.484;2023-04-06T14:50:38;18.00;1.00
4564;DHT22;2294;51.818;8.484;2023-04-06T14:53:05;18.30;1.00
4564;DHT22;2294;51.818;8.484;2023-04-06T14:55:32;19.40;1.00
4564;DHT22;2294;51.818;8.484;2023-04-06T14:58:01;19.40;1.00
4564;DHT22;2294;51.818;8.484;2023-04-06T15:00:27;18.60;1.00
4564;DHT22;2294;51.818;8.484;2023-04-06T15:02:54;19.00;1.00
4564;DHT22;2294;51.818;8.484;2023-04-06T15:05:21;20.30;1.00
4564;DHT22;2294;51.818;8.484;2023-04-06T15:07:48;20.90;1.00
4564;DHT22;2294;51.818;8.484;2023-04-06T15:10:15;19.70;1.00
4564;DHT22;2294;51.818;8.484;2023-04-06T15:12:42;19.20;1.00
4564;DHT22;2294;51.818;8.484;2023-04-06T15:15:11;19.20;1.00
4564;DHT22;2294;51.818;8.484;2023-04-06T15:17:37;18.00;1.00
4564;DHT22;2294;51.818;8.484;2023-04-06T15:20:05;17.70;1.00
4564;DHT22;2294;51.818;8.484;2023-04-06T15:22:32;17.00;1.00
4564;DHT22;2294;51.818;8.484;2023-04-06T15:24:59;17.10;1.00
4564;DHT22;2294;51.818;8.484;2023-04-06T15:27:26;16.80;1.00
4564;DHT22;2294;51.818;8.484;2023-04-06T15:29:53;16.40;1.00
4564;DHT22;2294;51.818;8.484;2023-04-06T15:32:22;16.40;1.00
4564;DHT22;2294;51.818;8.484;2023-04-06T15:34:48;16.20;1.00
4564;DHT22;2294;51.818;8.484;2023-04-06T15:37:16;16.10;1.00
4564;DHT22;2294;51.818;8.484;2023-04-06T15:39:43;16.10;1.00
4564;DHT22;2294;51.818;8.484;2023-04-06T15:42:10;15.70;1.00
4564;DHT22;2294;51.818;8.484;2023-04-06T15:44:36;15.30;1.00
4564;DHT22;2294;51.818;8.484;2023-04-06T15:47:03;15.00;1.00
4564;DHT22;2294;51.818;8.484;2023-04-06T15:49:32;15.30;1.00
4564;DHT22;2294;51.818;8.484;2023-04-06T15:51:59;15.40;1.00
4564;DHT22;2294;51.818;8.484;2023-04-06T15:54:26;15.20;1.00
4564;DHT22;2294;51.818;8.484;2023-04-06T15:56:53;15.20;1.00
4564;DHT22;2294;51.818;8.484;2023-04-06T15:59:21;15.50;1.00
4564;DHT22;2294;51.818;8.484;2023-04-06T16:01:48;15.20;1.00
4564;DHT22;2294;51.818;8.484;2023-04-06T16:04:15;15.20;1.00
4564;DHT22;2294;51.818;8.484;2023-04-06T16:06:43;15.30;1.00
4564;DHT22;2294;51.818;8.484;2023-04-06T16:09:10;15.10;1.00
4564;DHT22;2294;51.818;8.484;2023-04-06T16:11:37;15.10;1.00
4564;DHT22;2294;51.818;8.484;2023-04-06T16:14:04;15.00;1.00
4564;DHT22;2294;51.818;8.484;2023-04-06T16:16:31;15.00;1.00